createdAt,value
2023-04-07T00:02:25.919Z,12.52
2023-04-07T00:07:33.852Z,11.93
2023-04-07T00:12:41.198Z,10.15
2023-04-07T00:17:45.289Z,10.77
2023-04-07T00:22:50.668Z,10.05
2023-04-07T00:27:54.555Z,10.45
2023-04-07T00:32:58.681Z,10.00
2023-04-07T00:38:04.395Z,9.63
2023-04-07T00:43:08.308Z,9.40
2023-04-07T00:48:12.272Z,8.82
2023-04-07T00:53:18.244Z,8.38
2023-04-07T00:58:22.968Z,8.73
2023-04-07T01:03:32.853Z,8.20
2023-04-07T01:08:44.781Z,6.80
2023-04-07T01:13:52.384Z,8.48
2023-04-07T01:19:17.070Z,7.05
2023-04-07T01:25:11.587Z,6.95
2023-04-07T01:30:18.244Z,10.15
2023-04-07T01:35:24.196Z,7.13
2023-04-07T01:40:30.540Z,8.70
2023-04-07T01:45:37.549Z,9.13
2023-04-07T01:50:42.699Z,8.40
2023-04-07T01:55:46.870Z,9.38
2023-04-07T02:00:52.642Z,8.57
2023-04-07T02:06:05.416Z,8.95
2023-04-07T02:11:12.911Z,10.18
2023-04-07T02:16:20.005Z,9.10
2023-04-07T02:21:25.040Z,11.75
2023-04-07T02:26:28.982Z,12.27
2023-04-07T02:31:35.655Z,10.85
2023-04-07T02:36:39.774Z,10.15
2023-04-07T02:41:44.063Z,14.18
2023-04-07T02:46:49.360Z,10.90
2023-04-07T02:56:57.901Z,12.35
2023-04-07T03:02:04.251Z,11.48
2023-04-07T03:12:12.849Z,12.32
2023-04-07T03:17:18.151Z,10.23
2023-04-07T03:22:22.839Z,11.70
2023-04-07T03:27:29.367Z,9.75
2023-04-07T03:32:35.328Z,8.73
2023-04-07T03:37:39.444Z,10.45
2023-04-07T03:42:49.653Z,10.25
2023-04-07T03:47:55.753Z,11.18
2023-04-07T03:52:59.887Z,12.27
2023-04-07T03:58:07.323Z,13.23
2023-04-07T04:03:15.311Z,14.27
2023-04-07T04:08:42.499Z,11.80
2023-04-07T04:13:47.113Z,10.80
2023-04-07T04:18:52.489Z,12.27
2023-04-07T04:23:58.110Z,12.32
2023-04-07T04:29:04.007Z,10.07
2023-04-07T04:34:09.526Z,8.88
2023-04-07T04:39:13.973Z,9.40
2023-04-07T04:44:18.103Z,10.38
2023-04-07T04:49:23.596Z,14.40
2023-04-07T04:54:28.765Z,11.55
2023-04-07T04:59:35.113Z,10.02
2023-04-07T05:04:42.875Z,8.48
2023-04-07T05:10:08.634Z,11.48
2023-04-07T05:15:16.334Z,9.50
2023-04-07T05:20:25.455Z,10.57
2023-04-07T05:25:29.634Z,9.85
2023-04-07T05:30:37.204Z,8.43
2023-04-07T05:35:45.534Z,9.07
2023-04-07T05:40:50.678Z,9.60
2023-04-07T05:46:02.862Z,11.13
2023-04-07T05:51:09.616Z,9.00
2023-04-07T05:56:13.820Z,8.52
2023-04-07T06:01:21.557Z,11.23
2023-04-07T06:06:27.894Z,10.68
2023-04-07T06:11:32.517Z,9.27
2023-04-07T06:16:36.515Z,9.68
2023-04-07T06:21:41.907Z,13.02
2023-04-07T06:26:46.773Z,13.15
2023-04-07T06:31:50.696Z,11.00
2023-04-07T06:36:58.351Z,11.85
2023-04-07T06:42:03.382Z,15.68
2023-04-07T06:47:13.322Z,12.07
2023-04-07T06:52:18.522Z,13.98
2023-04-07T06:57:22.511Z,15.38
2023-04-07T07:02:26.684Z,15.00
2023-04-07T07:07:32.342Z,13.05
2023-04-07T07:12:36.424Z,25.17
2023-04-07T07:17:40.519Z,12.30
2023-04-07T07:22:45.948Z,20.00
2023-04-07T07:27:53.347Z,15.27
2023-04-07T07:32:57.483Z,11.45
2023-04-07T07:38:02.986Z,13.45
2023-04-07T07:43:07.540Z,13.15
2023-04-07T07:48:11.642Z,14.25
2023-04-07T07:53:16.982Z,11.82
2023-04-07T07:58:22.848Z,11.80
2023-04-07T08:03:27.060Z,12.65
2023-04-07T08:08:32.625Z,11.98
2023-04-07T08:13:36.757Z,11.73
2023-04-07T08:18:40.662Z,11.45
2023-04-07T08:23:46.701Z,11.98
2023-04-07T08:28:52.398Z,12.57
2023-04-07T08:33:58.324Z,16.27
2023-04-07T08:44:10.596Z,12.15
2023-04-07T08:49:15.196Z,15.20
2023-04-07T08:54:22.278Z,15.70
2023-04-07T08:59:29.784Z,15.90
2023-04-07T09:04:34.088Z,13.10
2023-04-07T09:09:39.498Z,14.40
2023-04-07T09:14:43.786Z,20.40
2023-04-07T09:19:48.335Z,16.90
2023-04-07T09:24:53.799Z,14.70
2023-04-07T09:30:13.048Z,14.07
2023-04-07T09:35:17.124Z,17.73
2023-04-07T09:40:28.828Z,19.70
2023-04-07T09:45:36.520Z,15.90
2023-04-07T09:50:45.848Z,17.33
2023-04-07T09:55:51.900Z,15.18
2023-04-07T10:00:56.637Z,13.20
2023-04-07T10:06:02.059Z,16.38
2023-04-07T10:11:08.461Z,16.48
2023-04-07T10:16:13.061Z,17.65
2023-04-07T10:21:18.297Z,14.60
2023-04-07T10:26:29.536Z,15.95
2023-04-07T10:31:34.165Z,14.63
2023-04-07T10:37:14.230Z,15.70
2023-04-07T10:42:48.535Z,13.98
2023-04-07T10:48:12.843Z,28.13
2023-04-07T10:53:17.554Z,15.68
2023-04-07T10:58:28.953Z,22.08
2023-04-07T11:03:35.452Z,18.65
2023-04-07T11:08:41.840Z,18.98
2023-04-07T11:13:48.877Z,22.73
2023-04-07T11:18:59.163Z,21.80
2023-04-07T11:24:03.182Z,17.45
2023-04-07T11:29:09.196Z,26.90
2023-04-07T11:34:13.223Z,15.15
2023-04-07T11:39:21.772Z,15.57
2023-04-07T11:44:27.290Z,26.70
2023-04-07T11:49:31.914Z,34.20
2023-04-07T11:54:43.444Z,23.63
2023-04-07T11:59:49.157Z,15.52
2023-04-07T12:10:20.151Z,12.50
2023-04-07T12:15:25.523Z,12.98
2023-04-07T12:20:29.653Z,13.45
2023-04-07T12:25:33.535Z,12.93
2023-04-07T12:30:38.902Z,12.93
2023-04-07T12:35:42.877Z,14.88
2023-04-07T12:40:46.758Z,12.50
2023-04-07T12:45:52.234Z,11.27
2023-04-07T12:50:56.715Z,14.20
2023-04-07T12:56:00.861Z,15.15
2023-04-07T13:01:06.899Z,18.08
2023-04-07T13:06:10.974Z,14.85
2023-04-07T13:11:14.920Z,18.80
2023-04-07T13:16:20.517Z,19.48
2023-04-07T13:21:42.586Z,14.35
2023-04-07T13:26:48.934Z,13.68
2023-04-07T13:31:54.389Z,15.18
2023-04-07T13:36:58.303Z,15.73
2023-04-07T13:42:02.552Z,16.92
2023-04-07T13:47:08.718Z,11.15
2023-04-07T13:52:13.586Z,13.93
2023-04-07T13:57:20.924Z,16.13
2023-04-07T14:02:28.175Z,19.08
2023-04-07T14:07:32.870Z,11.00
2023-04-07T14:12:37.156Z,18.10
2023-04-07T14:17:42.568Z,14.00
2023-04-07T14:22:46.571Z,20.08
2023-04-07T14:27:51.284Z,15.52
2023-04-07T14:32:56.631Z,12.55
2023-04-07T14:38:00.760Z,15.82
2023-04-07T14:43:07.647Z,12.48
2023-04-07T14:48:13.733Z,13.05
2023-04-07T14:53:17.964Z,15.43
2023-04-07T14:58:21.971Z,15.55
2023-04-07T15:03:27.585Z,11.40
2023-04-07T15:08:31.820Z,14.45
2023-04-07T15:13:36.177Z,14.23
2023-04-07T15:18:44.561Z,15.68
2023-04-07T15:23:48.899Z,14.65
2023-04-07T15:28:53.016Z,17.58
2023-04-07T15:33:58.697Z,14.70
2023-04-07T15:39:05.230Z,14.23
2023-04-07T15:44:09.306Z,16.80
2023-04-07T15:49:19.997Z,15.70
2023-04-07T15:54:23.901Z,21.38
2023-04-07T15:59:30.940Z,17.63
2023-04-07T16:04:36.874Z,18.10
2023-04-07T16:09:40.819Z,40.53
2023-04-07T16:14:45.181Z,34.20
2023-04-07T16:19:51.111Z,32.05
2023-04-07T16:24:55.212Z,26.65
2023-04-07T16:29:59.131Z,24.27
2023-04-07T16:35:04.640Z,22.08
2023-04-07T16:40:10.276Z,23.27
2023-04-07T16:45:14.591Z,23.05
2023-04-07T16:50:20.179Z,28.85
2023-04-07T16:55:24.526Z,27.05
2023-04-07T17:00:28.526Z,26.27
2023-04-07T17:05:33.985Z,34.38
2023-04-07T17:10:37.954Z,30.92
2023-04-07T17:15:42.024Z,26.38
2023-04-07T17:20:47.591Z,23.75
2023-04-07T17:25:52.263Z,24.60
2023-04-07T17:30:56.271Z,23.63
2023-04-07T17:36:03.565Z,23.00
2023-04-07T17:41:07.793Z,23.52
2023-04-07T17:46:11.794Z,25.45
2023-04-07T17:51:17.494Z,26.35
2023-04-07T17:56:22.252Z,22.58
2023-04-07T18:01:26.799Z,29.40
2023-04-07T18:06:32.407Z,27.58
2023-04-07T18:11:36.340Z,30.27
2023-04-07T18:16:40.534Z,28.63
2023-04-07T18:21:45.973Z,65.72
2023-04-07T18:26:50.134Z,42.83
2023-04-07T18:31:54.258Z,46.97
2023-04-07T18:36:59.556Z,50.80
2023-04-07T18:47:08.101Z,40.03
2023-04-07T18:52:13.829Z,38.78
2023-04-07T18:57:18.922Z,26.80
2023-04-07T19:02:23.013Z,23.10
2023-04-07T19:07:28.666Z,21.77
2023-04-07T19:12:32.635Z,22.85
2023-04-07T19:17:37.472Z,20.15
2023-04-07T19:22:44.798Z,24.15
2023-04-07T19:27:49.050Z,24.80
2023-04-07T19:32:53.523Z,25.40
2023-04-07T19:37:59.272Z,23.02
2023-04-07T19:48:07.987Z,23.55
2023-04-07T19:53:16.145Z,27.23
2023-04-07T19:58:21.769Z,25.25
2023-04-07T20:08:31.085Z,30.67
2023-04-07T20:13:35.258Z,28.35
2023-04-07T20:18:39.399Z,24.73
2023-04-07T20:23:44.654Z,21.55
2023-04-07T20:28:48.912Z,24.15
2023-04-07T20:33:53.220Z,24.20
2023-04-07T20:38:58.833Z,18.52
2023-04-07T20:44:03.385Z,25.60
2023-04-07T20:49:08.134Z,19.23
2023-04-07T20:54:13.525Z,17.35
2023-04-07T20:59:17.460Z,20.73
2023-04-07T21:04:21.564Z,24.10
2023-04-07T21:09:27.241Z,23.58
2023-04-07T21:14:32.012Z,28.95
2023-04-07T21:19:36.650Z,29.33
2023-04-07T21:24:41.946Z,28.15
2023-04-07T21:29:46.022Z,26.08
2023-04-07T21:34:53.291Z,34.35
2023-04-07T21:39:58.863Z,35.70
2023-04-07T21:50:08.808Z,37.85
2023-04-07T21:55:14.214Z,37.08
2023-04-07T22:00:18.227Z,37.50
2023-04-07T22:05:22.714Z,35.28
2023-04-07T22:10:31.631Z,33.35
2023-04-07T22:20:39.474Z,36.38
2023-04-07T22:25:44.982Z,32.67
2023-04-07T22:30:48.980Z,28.98
2023-04-07T22:35:53.049Z,28.73
2023-04-07T22:40:58.450Z,33.03
2023-04-07T22:46:02.376Z,31.25
2023-04-07T22:51:07.641Z,29.50
2023-04-07T22:56:13.575Z,35.78
2023-04-07T23:06:21.554Z,35.15
2023-04-07T23:11:27.128Z,35.30
2023-04-07T23:16:31.126Z,34.10
2023-04-07T23:21:35.078Z,40.80
2023-04-07T23:26:40.575Z,36.75
2023-04-07T23:31:44.694Z,44.10
2023-04-07T23:36:48.620Z,49.65
2023-04-07T23:41:53.930Z,44.13
2023-04-07T23:46:57.868Z,41.28
2023-04-07T23:52:01.825Z,45.80
2023-04-07T23:57:07.503Z,44.53
